Date,TemperatureHighF,TemperatureAvgF,TemperatureLowF,DewpointHighF,DewpointAvgF,DewpointLowF,HumidityHigh,HumidityAvg,HumidityLow,PressureMaxIn,PressureMinIn,WindSpeedMaxMPH,WindSpeedAvgMPH,GustSpeedMaxMPH,PrecipitationSumIn
2013-11-1,63.6,56.6,46.5,59.3,50.1,39.0,99,80,48,29.67,29.36,26,10,34,0.14
2013-11-2,55.9,46.1,35.7,45.0,40.0,34.5,96,80,60,29.80,29.61,17,4,20,0.02
2013-11-3,35.2,29.5,21.5,34.2,25.5,15.9,97,85,61,30.48,29.80,12,5,19,0.04
2013-11-4,34.3,25.6,17.0,17.2,15.6,13.6,88,67,45,30.69,30.49,12,2,18,0.00
2013-11-5,47.2,35.7,26.0,35.0,27.0,16.0,82,71,61,30.68,30.45,14,5,16,0.00
2013-11-6,55.9,46.2,37.4,45.5,40.3,34.7,93,81,61,30.47,29.94,15,6,22,0.00
2013-11-7,56.0,43.0,33.1,50.2,39.7,30.6,96,88,75,29.93,29.77,23,9,30,0.25
2013-11-8,35.9,31.4,29.1,31.1,28.5,23.8,96,89,66,30.16,29.85,29,9,35,0.00
2013-11-9,39.7,32.3,26.8,29.4,26.1,21.4,87,78,61,30.25,29.93,14,5,18,0.01
2013-11-10,43.3,37.8,31.4,36.6,31.6,27.7,96,78,63,29.97,29.78,30,8,40,0.00
2013-11-11,41.8,36.9,31.6,33.2,28.0,24.3,88,71,50,30.14,29.92,26,9,39,0.00
2013-11-12,36.2,23.3,19.2,33.3,19.6,14.1,95,86,77,30.28,29.93,26,13,34,0.00
2013-11-13,28.6,22.2,17.4,19.0,15.4,12.5,88,75,62,30.38,30.18,23,10,28,0.00
2013-11-14,45.7,37.9,28.5,23.9,14.7,8.7,61,39,24,30.18,30.10,21,8,28,0.00
2013-11-15,54.1,44.5,39.2,21.6,15.4,9.1,44,31,23,30.18,30.10,16,5,20,0.00
2013-11-16,56.9,46.5,40.5,37.1,31.0,18.4,82,57,30,30.29,30.17,16,4,16,0.00
2013-11-17,53.3,47.5,39.0,53.0,46.7,36.3,99,97,80,30.22,29.67,27,11,30,0.01
2013-11-18,54.7,48.7,35.7,54.0,39.5,25.8,99,73,43,29.71,29.48,28,11,37,0.18
2013-11-19,35.7,28.4,21.6,27.3,21.7,16.4,92,76,62,30.38,29.70,35,14,41,0.00
2013-11-20,30.5,21.3,15.4,16.4,13.8,10.9,88,74,46,30.66,30.38,10,3,16,0.00
2013-11-21,38.2,28.4,18.4,32.6,18.7,11.6,82,67,46,30.65,30.38,10,3,12,0.00
2013-11-22,39.5,38.4,37.2,37.5,34.8,31.7,94,87,79,30.38,29.90,21,3,31,0.07
2013-11-23,36.4,26.9,15.8,34.6,21.5,8.1,94,80,60,30.01,29.84,28,13,36,0.01
2013-11-24,16.9,12.1,7.0,11.1,5.3,1.1,91,74,52,30.32,29.89,30,16,37,0.00
2013-11-25,28.7,18.3,9.0,15.6,10.5,3.4,86,72,52,30.45,30.25,18,7,29,0.00
2013-11-26,31.8,26.8,22.8,31.3,24.2,10.9,98,90,50,30.30,29.93,16,5,21,0.12
2013-11-27,41.3,31.4,24.2,41.0,30.7,21.4,99,97,89,29.92,29.41,29,12,38,1.04
2013-11-28,24.1,18.0,13.9,21.4,13.4,8.9,91,82,72,30.39,29.63,33,13,38,0.00
2013-11-29,23.9,18.5,12.1,16.2,13.1,9.2,93,79,65,30.76,30.58,14,6,21,0.00
2013-11-30,24.2,15.8,5.0,20.9,10.0,2.3,93,78,61,30.79,30.38,15,5,18,0.00